ENT7048 DTTJ-EPWA
Flight info
| Callsign | ENT7048 |
|---|---|
| Flight time | 2h 44m |
| Altitude | 38000 |
| Route | TRIFA G362 RALAK DCT NIBLO DCT ADEXI DCT ROSAS DCT AMANO/N0446F390 DCT BEDPI DCT MOLUX DCT XOLTA DCT NOVLO/N0439F350 DCT VEBAL DCT MOCON DCT MEBAN DCT ORTEB DCT KONZI DCT LOGDA |
| Aircraft | B738/M-SDFGHIJ1RWXY/EB1 |
Departure
| Time | 2026-05-07 08:19 |
|---|---|
| Airport | Djerba Zarzis International Airport (DTTJ) |
Arrival
| Time | 2026-05-07 11:04 |
|---|---|
| Airport | Warsaw Chopin Airport (EPWA) |
| Time | Latitude | Longitude | Altitude | Speed | Heading |
|---|---|---|---|---|---|
| 2026-05-07 07:44 | 33.87160 | 10.77283 | 26 ft | 0 kts | 142° |
| 2026-05-07 08:08 | 33.87169 | 10.77275 | 26 ft | 4 kts | 142° |
| 2026-05-07 08:08 | 33.87190 | 10.77256 | 26 ft | 4 kts | 142° |
| 2026-05-07 08:08 | 33.87206 | 10.77238 | 26 ft | 4 kts | 110° |
| 2026-05-07 08:09 | 33.87207 | 10.77210 | 26 ft | 4 kts | 67° |
| 2026-05-07 08:09 | 33.87193 | 10.77182 | 26 ft | 4 kts | 47° |
| 2026-05-07 08:09 | 33.87190 | 10.77178 | 26 ft | 1 kts | 45° |
| 2026-05-07 08:12 | 33.87193 | 10.77182 | 26 ft | 2 kts | 45° |
| 2026-05-07 08:12 | 33.87218 | 10.77211 | 26 ft | 8 kts | 45° |
| 2026-05-07 08:12 | 33.87277 | 10.77258 | 26 ft | 11 kts | 26° |
| 2026-05-07 08:12 | 33.87347 | 10.77301 | 26 ft | 11 kts | 29° |
| 2026-05-07 08:13 | 33.87378 | 10.77379 | 26 ft | 11 kts | 91° |
| 2026-05-07 08:13 | 33.87381 | 10.77469 | 30 ft | 11 kts | 88° |
| 2026-05-07 08:13 | 33.87381 | 10.77556 | 29 ft | 11 kts | 90° |
| 2026-05-07 08:13 | 33.87385 | 10.77656 | 25 ft | 14 kts | 88° |
| 2026-05-07 08:14 | 33.87388 | 10.77790 | 26 ft | 18 kts | 88° |
| 2026-05-07 08:14 | 33.87392 | 10.77954 | 26 ft | 20 kts | 88° |
| 2026-05-07 08:14 | 33.87397 | 10.78119 | 25 ft | 19 kts | 88° |
| 2026-05-07 08:14 | 33.87393 | 10.78279 | 26 ft | 19 kts | 89° |
| 2026-05-07 08:15 | 33.87398 | 10.78433 | 26 ft | 18 kts | 88° |
| 2026-05-07 08:15 | 33.87414 | 10.78569 | 21 ft | 13 kts | 58° |
| 2026-05-07 08:15 | 33.87495 | 10.78599 | 20 ft | 13 kts | 359° |
| 2026-05-07 08:15 | 33.87564 | 10.78639 | 19 ft | 12 kts | 73° |
| 2026-05-07 08:16 | 33.87570 | 10.78753 | 18 ft | 18 kts | 89° |
| 2026-05-07 08:16 | 33.87574 | 10.78913 | 17 ft | 19 kts | 86° |
| 2026-05-07 08:16 | 33.87578 | 10.79073 | 21 ft | 19 kts | 88° |
| 2026-05-07 08:16 | 33.87582 | 10.79226 | 21 ft | 18 kts | 88° |
| 2026-05-07 08:17 | 33.87611 | 10.79332 | 20 ft | 9 kts | 57° |
| 2026-05-07 08:17 | 33.87611 | 10.79361 | 20 ft | 3 kts | 141° |
| 2026-05-07 08:17 | 33.87589 | 10.79358 | 20 ft | 4 kts | 224° |
| 2026-05-07 08:17 | 33.87585 | 10.79336 | 20 ft | 0 kts | 268° |
| 2026-05-07 08:18 | 33.87585 | 10.79305 | 20 ft | 10 kts | 268° |
| 2026-05-07 08:18 | 33.87576 | 10.78951 | 19 ft | 79 kts | 268° |
| 2026-05-07 08:18 | 33.87553 | 10.78016 | 21 ft | 142 kts | 267° |
| 2026-05-07 08:19 | 33.87518 | 10.76627 | 202 ft | 178 kts | 270° |
| 2026-05-07 08:19 | 33.87414 | 10.75199 | 1118 ft | 177 kts | 258° |
| 2026-05-07 08:19 | 33.86632 | 10.73854 | 1293 ft | 218 kts | 216° |
| 2026-05-07 08:19 | 33.85151 | 10.73372 | 1850 ft | 230 kts | 176° |
| 2026-05-07 08:20 | 33.83688 | 10.74103 | 2414 ft | 237 kts | 134° |
| 2026-05-07 08:20 | 33.82952 | 10.75867 | 2838 ft | 242 kts | 92° |
| 2026-05-07 08:20 | 33.83287 | 10.77785 | 3443 ft | 236 kts | 55° |
| 2026-05-07 08:20 | 33.84344 | 10.79258 | 4044 ft | 237 kts | 37° |
| 2026-05-07 08:21 | 33.85689 | 10.80592 | 4269 ft | 265 kts | 34° |
| 2026-05-07 08:21 | 33.87182 | 10.81976 | 4889 ft | 275 kts | 33° |
| 2026-05-07 08:21 | 33.88717 | 10.83393 | 5652 ft | 281 kts | 33° |
| 2026-05-07 08:21 | 33.90287 | 10.84843 | 6341 ft | 289 kts | 33° |
| 2026-05-07 08:22 | 33.91899 | 10.86349 | 7029 ft | 297 kts | 33° |
| 2026-05-07 08:22 | 33.93511 | 10.87863 | 7766 ft | 301 kts | 33° |
| 2026-05-07 08:22 | 33.95178 | 10.89435 | 8467 ft | 306 kts | 34° |
| 2026-05-07 08:22 | 33.96866 | 10.91037 | 9170 ft | 311 kts | 34° |
| 2026-05-07 08:23 | 33.98582 | 10.92669 | 9767 ft | 319 kts | 34° |
| 2026-05-07 08:23 | 34.00351 | 10.94351 | 10249 ft | 332 kts | 34° |
| 2026-05-07 08:23 | 34.02233 | 10.96140 | 10412 ft | 355 kts | 34° |
| 2026-05-07 08:23 | 34.04212 | 10.98026 | 10847 ft | 367 kts | 35° |
| 2026-05-07 08:24 | 34.06237 | 10.99961 | 11429 ft | 375 kts | 34° |
| 2026-05-07 08:24 | 34.08290 | 11.01925 | 12104 ft | 379 kts | 34° |
| 2026-05-07 08:24 | 34.10367 | 11.03912 | 12801 ft | 383 kts | 34° |
| 2026-05-07 08:24 | 34.12464 | 11.05921 | 13427 ft | 388 kts | 34° |
| 2026-05-07 08:25 | 34.14594 | 11.07962 | 14053 ft | 393 kts | 34° |
| 2026-05-07 08:25 | 34.16747 | 11.10025 | 14692 ft | 397 kts | 34° |
| 2026-05-07 08:25 | 34.18906 | 11.12144 | 15322 ft | 402 kts | 38° |
| 2026-05-07 08:25 | 34.20985 | 11.14450 | 15897 ft | 408 kts | 40° |
| 2026-05-07 08:26 | 34.25146 | 11.19241 | 17048 ft | 417 kts | 40° |
| 2026-05-07 08:26 | 34.27263 | 11.21660 | 17616 ft | 421 kts | 40° |
| 2026-05-07 08:26 | 34.28684 | 11.23277 | 17973 ft | 424 kts | 40° |
| 2026-05-07 08:27 | 34.30849 | 11.25736 | 18520 ft | 428 kts | 40° |
| 2026-05-07 08:27 | 34.33731 | 11.29011 | 19327 ft | 430 kts | 40° |
| 2026-05-07 08:27 | 34.35203 | 11.30687 | 19742 ft | 431 kts | 40° |
| 2026-05-07 08:27 | 34.37394 | 11.33178 | 20311 ft | 433 kts | 40° |
| 2026-05-07 08:28 | 34.40329 | 11.36480 | 21028 ft | 436 kts | 39° |
| 2026-05-07 08:28 | 34.41838 | 11.38168 | 21384 ft | 438 kts | 39° |
| 2026-05-07 08:28 | 34.44080 | 11.40679 | 21902 ft | 440 kts | 39° |
| 2026-05-07 08:28 | 34.46331 | 11.43206 | 22380 ft | 442 kts | 39° |
| 2026-05-07 08:29 | 34.48593 | 11.45749 | 22846 ft | 445 kts | 39° |
| 2026-05-07 08:29 | 34.50863 | 11.48304 | 23327 ft | 446 kts | 38° |
| 2026-05-07 08:29 | 34.53277 | 11.50656 | 23761 ft | 444 kts | 29° |
| 2026-05-07 08:29 | 34.55903 | 11.52525 | 24178 ft | 442 kts | 24° |
| 2026-05-07 08:30 | 34.58612 | 11.54298 | 24607 ft | 444 kts | 23° |
| 2026-05-07 08:30 | 34.61353 | 11.56061 | 24982 ft | 447 kts | 22° |
| 2026-05-07 08:30 | 34.64110 | 11.57834 | 25311 ft | 451 kts | 22° |
| 2026-05-07 08:30 | 34.66885 | 11.59634 | 25665 ft | 454 kts | 23° |
| 2026-05-07 08:31 | 34.69679 | 11.61463 | 26033 ft | 457 kts | 23° |
| 2026-05-07 08:31 | 34.72488 | 11.63315 | 26352 ft | 460 kts | 23° |
| 2026-05-07 08:31 | 34.75311 | 11.65185 | 26682 ft | 463 kts | 23° |
| 2026-05-07 08:31 | 34.78144 | 11.67070 | 27021 ft | 466 kts | 23° |
| 2026-05-07 08:32 | 34.80993 | 11.68967 | 27333 ft | 469 kts | 22° |
| 2026-05-07 08:32 | 34.83867 | 11.70882 | 27631 ft | 472 kts | 22° |
| 2026-05-07 08:32 | 34.86750 | 11.72804 | 27960 ft | 474 kts | 22° |
| 2026-05-07 08:32 | 34.89652 | 11.74740 | 28262 ft | 476 kts | 22° |
| 2026-05-07 08:33 | 34.92565 | 11.76685 | 28551 ft | 479 kts | 22° |
| 2026-05-07 08:33 | 34.95494 | 11.78640 | 28831 ft | 482 kts | 22° |
| 2026-05-07 08:33 | 34.98446 | 11.80612 | 29112 ft | 484 kts | 22° |
| 2026-05-07 08:33 | 35.01408 | 11.82594 | 29371 ft | 487 kts | 22° |
| 2026-05-07 08:34 | 35.04386 | 11.84587 | 29616 ft | 490 kts | 22° |
| 2026-05-07 08:34 | 35.07384 | 11.86596 | 29885 ft | 491 kts | 21° |
| 2026-05-07 08:34 | 35.10381 | 11.88607 | 30145 ft | 493 kts | 21° |
| 2026-05-07 08:34 | 35.13399 | 11.90634 | 30375 ft | 496 kts | 21° |
| 2026-05-07 08:35 | 35.16426 | 11.92669 | 30593 ft | 498 kts | 21° |
| 2026-05-07 08:35 | 35.19468 | 11.94714 | 30810 ft | 501 kts | 21° |
| 2026-05-07 08:35 | 35.22522 | 11.96770 | 31076 ft | 501 kts | 21° |
| 2026-05-07 08:35 | 35.25574 | 11.98828 | 31407 ft | 500 kts | 21° |
| 2026-05-07 08:36 | 35.28634 | 12.00894 | 31746 ft | 500 kts | 20° |
| 2026-05-07 08:36 | 35.31629 | 12.02919 | 32182 ft | 495 kts | 20° |
| 2026-05-07 08:36 | 35.34645 | 12.04958 | 32459 ft | 496 kts | 20° |
| 2026-05-07 08:36 | 35.37673 | 12.07003 | 32641 ft | 498 kts | 20° |
| 2026-05-07 08:37 | 35.40710 | 12.09054 | 32856 ft | 499 kts | 20° |
| 2026-05-07 08:37 | 35.43753 | 12.11114 | 33166 ft | 498 kts | 20° |
| 2026-05-07 08:37 | 35.46778 | 12.13165 | 33401 ft | 498 kts | 20° |
| 2026-05-07 08:37 | 35.49832 | 12.15236 | 33581 ft | 500 kts | 20° |
| 2026-05-07 08:38 | 35.52890 | 12.17312 | 33783 ft | 501 kts | 19° |
| 2026-05-07 08:38 | 35.55905 | 12.19358 | 34069 ft | 500 kts | 19° |
| 2026-05-07 08:38 | 35.58941 | 12.21425 | 34353 ft | 499 kts | 19° |
| 2026-05-07 08:38 | 35.61973 | 12.23492 | 34597 ft | 498 kts | 19° |
| 2026-05-07 08:39 | 35.65008 | 12.25561 | 34873 ft | 497 kts | 19° |
| 2026-05-07 08:39 | 35.68028 | 12.27623 | 35132 ft | 496 kts | 19° |
| 2026-05-07 08:39 | 35.71046 | 12.29682 | 35328 ft | 496 kts | 19° |
| 2026-05-07 08:39 | 35.74064 | 12.31743 | 35524 ft | 496 kts | 19° |
| 2026-05-07 08:40 | 35.77087 | 12.33807 | 35731 ft | 496 kts | 19° |
| 2026-05-07 08:40 | 35.80099 | 12.35869 | 35997 ft | 494 kts | 19° |
| 2026-05-07 08:40 | 35.83095 | 12.37923 | 36256 ft | 492 kts | 19° |
| 2026-05-07 08:40 | 35.86093 | 12.39980 | 36428 ft | 493 kts | 18° |
| 2026-05-07 08:41 | 35.89086 | 12.42032 | 36613 ft | 492 kts | 19° |
| 2026-05-07 08:41 | 35.92062 | 12.44078 | 36936 ft | 488 kts | 18° |
| 2026-05-07 08:41 | 35.95005 | 12.46108 | 37387 ft | 480 kts | 18° |
| 2026-05-07 08:41 | 35.97912 | 12.48112 | 37655 ft | 478 kts | 18° |
| 2026-05-07 08:42 | 36.00812 | 12.50106 | 37791 ft | 477 kts | 18° |
| 2026-05-07 08:42 | 36.03719 | 12.52104 | 37815 ft | 479 kts | 18° |
| 2026-05-07 08:42 | 36.09574 | 12.56130 | 37833 ft | 483 kts | 18° |
| 2026-05-07 08:43 | 36.15413 | 12.60164 | 37837 ft | 484 kts | 18° |
| 2026-05-07 08:43 | 36.21302 | 12.64244 | 37830 ft | 485 kts | 18° |
| 2026-05-07 08:44 | 36.27193 | 12.68333 | 37831 ft | 485 kts | 18° |
| 2026-05-07 08:44 | 36.33071 | 12.72420 | 37828 ft | 484 kts | 18° |
| 2026-05-07 08:45 | 36.38934 | 12.76500 | 37831 ft | 483 kts | 18° |
| 2026-05-07 08:45 | 36.44779 | 12.80576 | 37842 ft | 481 kts | 18° |
| 2026-05-07 08:46 | 36.50694 | 12.84187 | 37837 ft | 462 kts | 6° |
| 2026-05-07 08:46 | 36.53734 | 12.85181 | 37840 ft | 444 kts | 356° |
| 2026-05-07 08:46 | 36.56772 | 12.85819 | 37849 ft | 442 kts | 356° |
| 2026-05-07 08:47 | 36.62841 | 12.87034 | 37839 ft | 442 kts | 356° |
| 2026-05-07 08:47 | 36.68901 | 12.88286 | 37843 ft | 442 kts | 356° |
| 2026-05-07 08:48 | 36.74974 | 12.89580 | 37845 ft | 443 kts | 356° |
| 2026-05-07 08:48 | 36.81052 | 12.90893 | 37857 ft | 443 kts | 356° |
| 2026-05-07 08:49 | 36.87145 | 12.92210 | 37853 ft | 445 kts | 357° |
| 2026-05-07 08:49 | 36.93246 | 12.93531 | 37866 ft | 445 kts | 357° |
| 2026-05-07 08:50 | 36.99318 | 12.94848 | 37869 ft | 446 kts | 357° |
| 2026-05-07 08:50 | 37.05436 | 12.96175 | 37873 ft | 446 kts | 357° |
| 2026-05-07 08:51 | 37.11563 | 12.97508 | 37874 ft | 447 kts | 357° |
| 2026-05-07 08:51 | 37.17691 | 12.98843 | 37879 ft | 447 kts | 357° |
| 2026-05-07 08:52 | 37.23827 | 13.00181 | 37881 ft | 447 kts | 357° |
| 2026-05-07 08:52 | 37.29963 | 13.01523 | 37876 ft | 447 kts | 357° |
| 2026-05-07 08:53 | 37.36099 | 13.02947 | 37881 ft | 452 kts | 0° |
| 2026-05-07 08:53 | 37.42223 | 13.04936 | 37878 ft | 456 kts | 3° |
| 2026-05-07 08:54 | 37.48337 | 13.07079 | 37880 ft | 455 kts | 3° |
| 2026-05-07 08:54 | 37.54441 | 13.09186 | 37890 ft | 455 kts | 2° |
| 2026-05-07 08:55 | 37.60550 | 13.11255 | 37884 ft | 455 kts | 2° |
| 2026-05-07 08:55 | 37.66666 | 13.13315 | 37879 ft | 455 kts | 2° |
| 2026-05-07 08:56 | 37.72737 | 13.15364 | 37887 ft | 454 kts | 2° |
| 2026-05-07 08:56 | 37.78854 | 13.17432 | 37884 ft | 454 kts | 2° |
| 2026-05-07 08:57 | 37.84964 | 13.19504 | 37891 ft | 454 kts | 2° |
| 2026-05-07 08:57 | 37.91060 | 13.21574 | 37888 ft | 453 kts | 2° |
| 2026-05-07 08:58 | 37.97150 | 13.23647 | 37894 ft | 453 kts | 2° |
| 2026-05-07 08:58 | 38.03235 | 13.25718 | 37887 ft | 453 kts | 3° |
| 2026-05-07 08:59 | 38.09307 | 13.27788 | 37890 ft | 451 kts | 4° |
| 2026-05-07 08:59 | 38.15367 | 13.29860 | 37894 ft | 450 kts | 3° |
| 2026-05-07 09:00 | 38.21372 | 13.31916 | 37889 ft | 449 kts | 4° |
| 2026-05-07 09:00 | 38.27406 | 13.33987 | 37893 ft | 449 kts | 4° |
| 2026-05-07 09:01 | 38.33448 | 13.36061 | 37893 ft | 450 kts | 4° |
| 2026-05-07 09:01 | 38.39506 | 13.38145 | 37892 ft | 451 kts | 4° |
| 2026-05-07 09:02 | 38.45572 | 13.40236 | 37890 ft | 452 kts | 4° |
| 2026-05-07 09:02 | 38.51656 | 13.42338 | 37890 ft | 453 kts | 4° |
| 2026-05-07 09:03 | 38.57760 | 13.44451 | 37901 ft | 454 kts | 4° |
| 2026-05-07 09:03 | 38.63868 | 13.46568 | 37897 ft | 455 kts | 4° |
| 2026-05-07 09:04 | 38.69944 | 13.48677 | 37896 ft | 455 kts | 5° |
| 2026-05-07 09:04 | 38.76064 | 13.50807 | 37905 ft | 456 kts | 5° |
| 2026-05-07 09:05 | 38.82185 | 13.52941 | 37910 ft | 456 kts | 5° |
| 2026-05-07 09:05 | 38.88296 | 13.55251 | 37916 ft | 460 kts | 9° |
| 2026-05-07 09:06 | 38.94357 | 13.57995 | 37919 ft | 463 kts | 10° |
| 2026-05-07 09:06 | 39.00376 | 13.60774 | 37923 ft | 462 kts | 10° |
| 2026-05-07 09:07 | 39.06432 | 13.63521 | 37925 ft | 461 kts | 10° |
| 2026-05-07 09:07 | 39.12492 | 13.66249 | 37935 ft | 461 kts | 11° |
| 2026-05-07 09:08 | 39.18555 | 13.68977 | 37935 ft | 461 kts | 11° |
| 2026-05-07 09:08 | 39.24602 | 13.71707 | 37942 ft | 460 kts | 11° |
| 2026-05-07 09:09 | 39.30647 | 13.74441 | 37943 ft | 460 kts | 11° |
| 2026-05-07 09:09 | 39.36675 | 13.77173 | 37951 ft | 459 kts | 12° |
| 2026-05-07 09:10 | 39.42706 | 13.79912 | 37960 ft | 459 kts | 13° |
| 2026-05-07 09:10 | 39.48682 | 13.82905 | 37966 ft | 462 kts | 15° |
| 2026-05-07 09:11 | 39.54601 | 13.86038 | 37964 ft | 462 kts | 15° |
| 2026-05-07 09:11 | 39.60559 | 13.89181 | 37980 ft | 462 kts | 15° |
| 2026-05-07 09:12 | 39.66534 | 13.92305 | 37977 ft | 463 kts | 15° |
| 2026-05-07 09:12 | 39.72512 | 13.95421 | 37985 ft | 463 kts | 15° |
| 2026-05-07 09:13 | 39.78499 | 13.98546 | 37983 ft | 463 kts | 16° |
| 2026-05-07 09:13 | 39.84478 | 14.01673 | 38000 ft | 463 kts | 14° |
| 2026-05-07 09:14 | 39.90447 | 14.04803 | 37993 ft | 462 kts | 11° |
| 2026-05-07 09:14 | 39.96400 | 14.07930 | 38009 ft | 461 kts | 11° |
| 2026-05-07 09:15 | 40.01343 | 14.10529 | 38011 ft | 460 kts | 11° |
| 2026-05-07 09:15 | 40.08240 | 14.14163 | 38010 ft | 460 kts | 11° |
| 2026-05-07 09:16 | 40.14165 | 14.17291 | 38023 ft | 459 kts | 11° |
| 2026-05-07 09:16 | 40.19126 | 14.19914 | 38020 ft | 459 kts | 11° |
| 2026-05-07 09:17 | 40.25057 | 14.23055 | 38019 ft | 460 kts | 11° |
| 2026-05-07 09:17 | 40.30947 | 14.26184 | 38019 ft | 460 kts | 11° |
| 2026-05-07 09:18 | 40.36875 | 14.29338 | 38018 ft | 460 kts | 12° |
| 2026-05-07 09:18 | 40.42809 | 14.32500 | 38025 ft | 460 kts | 12° |
| 2026-05-07 09:19 | 40.48735 | 14.35665 | 38025 ft | 460 kts | 12° |
| 2026-05-07 09:19 | 40.54668 | 14.38840 | 38019 ft | 461 kts | 12° |
| 2026-05-07 09:20 | 40.60612 | 14.42026 | 38017 ft | 461 kts | 13° |
| 2026-05-07 09:20 | 40.66553 | 14.45216 | 38020 ft | 462 kts | 13° |
| 2026-05-07 09:21 | 40.72479 | 14.48402 | 38021 ft | 463 kts | 13° |
| 2026-05-07 09:21 | 40.78433 | 14.51617 | 38027 ft | 462 kts | 14° |
| 2026-05-07 09:22 | 40.84389 | 14.54836 | 38030 ft | 462 kts | 14° |
| 2026-05-07 09:22 | 40.90352 | 14.58058 | 38028 ft | 463 kts | 14° |
| 2026-05-07 09:23 | 40.96313 | 14.61292 | 38029 ft | 462 kts | 15° |
| 2026-05-07 09:23 | 41.02265 | 14.64528 | 38033 ft | 463 kts | 15° |
| 2026-05-07 09:24 | 41.08229 | 14.67776 | 38021 ft | 463 kts | 15° |
| 2026-05-07 09:24 | 41.14184 | 14.71025 | 38023 ft | 462 kts | 15° |
| 2026-05-07 09:25 | 41.20127 | 14.74275 | 38048 ft | 462 kts | 15° |
| 2026-05-07 09:25 | 41.26018 | 14.77549 | 38055 ft | 463 kts | 18° |
| 2026-05-07 09:26 | 41.31811 | 14.81391 | 38055 ft | 465 kts | 21° |
| 2026-05-07 09:26 | 41.37586 | 14.85261 | 38055 ft | 464 kts | 20° |
| 2026-05-07 09:27 | 41.43371 | 14.89076 | 38055 ft | 464 kts | 20° |
| 2026-05-07 09:28 | 41.52047 | 14.94799 | 38054 ft | 463 kts | 20° |
| 2026-05-07 09:28 | 41.57815 | 14.98620 | 38068 ft | 463 kts | 21° |
| 2026-05-07 09:29 | 41.63604 | 15.02464 | 38019 ft | 465 kts | 21° |
| 2026-05-07 09:29 | 41.69388 | 15.06314 | 38018 ft | 465 kts | 21° |
| 2026-05-07 09:30 | 41.75181 | 15.10179 | 38020 ft | 465 kts | 21° |
| 2026-05-07 09:30 | 41.80978 | 15.14053 | 38017 ft | 466 kts | 21° |
| 2026-05-07 09:31 | 41.86745 | 15.17915 | 38023 ft | 466 kts | 21° |
| 2026-05-07 09:31 | 41.92587 | 15.21835 | 38021 ft | 466 kts | 22° |
| 2026-05-07 09:32 | 41.98352 | 15.25712 | 38029 ft | 466 kts | 22° |
| 2026-05-07 09:32 | 42.04145 | 15.29614 | 38033 ft | 466 kts | 23° |
| 2026-05-07 09:33 | 42.09938 | 15.33525 | 38035 ft | 466 kts | 23° |
| 2026-05-07 09:33 | 42.15743 | 15.37453 | 38043 ft | 467 kts | 23° |
| 2026-05-07 09:34 | 42.21549 | 15.41389 | 38037 ft | 468 kts | 23° |
| 2026-05-07 09:34 | 42.27364 | 15.45341 | 38038 ft | 468 kts | 23° |
| 2026-05-07 09:35 | 42.33185 | 15.49303 | 38037 ft | 468 kts | 23° |
| 2026-05-07 09:35 | 42.39010 | 15.53279 | 38038 ft | 469 kts | 23° |
| 2026-05-07 09:36 | 42.44833 | 15.57260 | 38028 ft | 469 kts | 23° |
| 2026-05-07 09:36 | 42.50624 | 15.61225 | 38027 ft | 469 kts | 23° |
| 2026-05-07 09:37 | 42.56453 | 15.65228 | 38033 ft | 469 kts | 24° |
| 2026-05-07 09:37 | 42.62276 | 15.69235 | 38036 ft | 469 kts | 24° |
| 2026-05-07 09:38 | 42.68110 | 15.73256 | 38134 ft | 471 kts | 24° |
| 2026-05-07 09:38 | 42.71054 | 15.75206 | 38324 ft | 468 kts | 19° |
| 2026-05-07 09:38 | 42.74087 | 15.76764 | 38536 ft | 465 kts | 15° |
| 2026-05-07 09:38 | 42.77157 | 15.78169 | 38667 ft | 465 kts | 14° |
| 2026-05-07 09:39 | 42.80237 | 15.79515 | 38742 ft | 466 kts | 13° |
| 2026-05-07 09:39 | 42.83330 | 15.80859 | 38859 ft | 466 kts | 14° |
| 2026-05-07 09:39 | 42.86421 | 15.82219 | 39003 ft | 465 kts | 14° |
| 2026-05-07 09:40 | 42.92554 | 15.84978 | 39047 ft | 468 kts | 14° |
| 2026-05-07 09:40 | 42.98743 | 15.87817 | 39050 ft | 469 kts | 15° |
| 2026-05-07 09:41 | 43.04930 | 15.90674 | 39046 ft | 469 kts | 15° |
| 2026-05-07 09:41 | 43.11114 | 15.93535 | 39046 ft | 469 kts | 15° |
| 2026-05-07 09:42 | 43.17307 | 15.96405 | 39046 ft | 469 kts | 15° |
| 2026-05-07 09:42 | 43.23500 | 15.99279 | 39046 ft | 469 kts | 15° |
| 2026-05-07 09:43 | 43.29648 | 16.02138 | 39045 ft | 469 kts | 15° |
| 2026-05-07 09:43 | 43.35827 | 16.05017 | 39046 ft | 469 kts | 15° |
| 2026-05-07 09:44 | 43.42013 | 16.07905 | 39044 ft | 468 kts | 15° |
| 2026-05-07 09:44 | 43.48181 | 16.10794 | 39050 ft | 469 kts | 15° |
| 2026-05-07 09:45 | 43.54361 | 16.13693 | 39043 ft | 468 kts | 15° |
| 2026-05-07 09:45 | 43.60519 | 16.16622 | 39019 ft | 468 kts | 15° |
| 2026-05-07 09:46 | 43.66702 | 16.19463 | 39038 ft | 469 kts | 15° |
| 2026-05-07 09:46 | 43.72869 | 16.22382 | 39019 ft | 468 kts | 15° |
| 2026-05-07 09:47 | 43.79024 | 16.25260 | 39048 ft | 467 kts | 16° |
| 2026-05-07 09:47 | 43.85168 | 16.28213 | 39054 ft | 468 kts | 16° |
| 2026-05-07 09:48 | 43.91336 | 16.31167 | 39046 ft | 469 kts | 16° |
| 2026-05-07 09:48 | 43.97522 | 16.34090 | 39029 ft | 470 kts | 15° |
| 2026-05-07 09:49 | 44.03744 | 16.37100 | 39031 ft | 476 kts | 15° |
| 2026-05-07 09:49 | 44.09967 | 16.40173 | 39048 ft | 474 kts | 16° |
| 2026-05-07 09:50 | 44.16205 | 16.43120 | 39051 ft | 473 kts | 15° |
| 2026-05-07 09:50 | 44.22382 | 16.46038 | 39058 ft | 472 kts | 16° |
| 2026-05-07 09:51 | 44.28588 | 16.49010 | 39050 ft | 470 kts | 16° |
| 2026-05-07 09:51 | 44.34808 | 16.52012 | 39054 ft | 469 kts | 16° |
| 2026-05-07 09:52 | 44.40932 | 16.54979 | 39064 ft | 468 kts | 16° |
| 2026-05-07 09:52 | 44.47083 | 16.57962 | 39059 ft | 468 kts | 16° |
| 2026-05-07 09:53 | 44.53243 | 16.60953 | 39061 ft | 468 kts | 16° |
| 2026-05-07 09:53 | 44.59390 | 16.63945 | 39051 ft | 468 kts | 16° |
| 2026-05-07 09:54 | 44.65546 | 16.66956 | 39050 ft | 470 kts | 16° |
| 2026-05-07 09:54 | 44.71730 | 16.69979 | 39052 ft | 471 kts | 17° |
| 2026-05-07 09:55 | 44.77927 | 16.73016 | 39055 ft | 473 kts | 17° |
| 2026-05-07 09:55 | 44.84119 | 16.76054 | 39039 ft | 474 kts | 17° |
| 2026-05-07 09:56 | 44.90363 | 16.79131 | 39049 ft | 475 kts | 17° |
| 2026-05-07 09:56 | 44.96608 | 16.82219 | 39050 ft | 476 kts | 17° |
| 2026-05-07 09:57 | 45.02870 | 16.85319 | 39048 ft | 477 kts | 17° |
| 2026-05-07 09:57 | 45.09151 | 16.88435 | 39044 ft | 478 kts | 17° |
| 2026-05-07 09:58 | 45.15421 | 16.91553 | 39052 ft | 478 kts | 17° |
| 2026-05-07 09:58 | 45.21697 | 16.94682 | 39040 ft | 478 kts | 17° |
| 2026-05-07 09:59 | 45.27940 | 16.97647 | 39045 ft | 476 kts | 14° |
| 2026-05-07 09:59 | 45.34268 | 17.00412 | 39047 ft | 475 kts | 14° |
| 2026-05-07 10:00 | 45.40586 | 17.03181 | 39044 ft | 475 kts | 14° |
| 2026-05-07 10:00 | 45.46885 | 17.05988 | 39050 ft | 474 kts | 15° |
| 2026-05-07 10:01 | 45.53179 | 17.08817 | 39045 ft | 474 kts | 15° |
| 2026-05-07 10:01 | 45.59462 | 17.11648 | 39047 ft | 473 kts | 15° |
| 2026-05-07 10:02 | 45.65736 | 17.14478 | 39040 ft | 473 kts | 15° |
| 2026-05-07 10:02 | 45.72005 | 17.17311 | 39049 ft | 472 kts | 15° |
| 2026-05-07 10:03 | 45.78266 | 17.20151 | 39048 ft | 472 kts | 15° |
| 2026-05-07 10:03 | 45.84482 | 17.22977 | 39049 ft | 472 kts | 15° |
| 2026-05-07 10:04 | 45.90760 | 17.25840 | 39046 ft | 473 kts | 15° |
| 2026-05-07 10:04 | 45.97033 | 17.28701 | 39044 ft | 473 kts | 15° |
| 2026-05-07 10:05 | 46.02218 | 17.31251 | 39034 ft | 475 kts | 19° |
| 2026-05-07 10:05 | 46.08368 | 17.34764 | 39041 ft | 476 kts | 20° |
| 2026-05-07 10:06 | 46.14514 | 17.38376 | 39043 ft | 477 kts | 20° |
| 2026-05-07 10:06 | 46.20673 | 17.41955 | 39035 ft | 477 kts | 20° |
| 2026-05-07 10:07 | 46.26848 | 17.45511 | 39026 ft | 478 kts | 20° |
| 2026-05-07 10:07 | 46.33028 | 17.49062 | 39030 ft | 478 kts | 20° |
| 2026-05-07 10:08 | 46.39213 | 17.52627 | 39025 ft | 478 kts | 20° |
| 2026-05-07 10:08 | 46.45402 | 17.56206 | 39030 ft | 478 kts | 20° |
| 2026-05-07 10:09 | 46.51540 | 17.59765 | 39022 ft | 477 kts | 20° |
| 2026-05-07 10:09 | 46.57703 | 17.63348 | 39028 ft | 477 kts | 20° |
| 2026-05-07 10:10 | 46.63861 | 17.66936 | 39032 ft | 477 kts | 20° |
| 2026-05-07 10:10 | 46.70011 | 17.70527 | 39026 ft | 477 kts | 20° |
| 2026-05-07 10:11 | 46.76179 | 17.74138 | 39014 ft | 477 kts | 20° |
| 2026-05-07 10:11 | 46.82321 | 17.77746 | 39017 ft | 476 kts | 20° |
| 2026-05-07 10:12 | 46.88456 | 17.81355 | 39011 ft | 476 kts | 20° |
| 2026-05-07 10:12 | 46.94601 | 17.84979 | 39018 ft | 476 kts | 20° |
| 2026-05-07 10:13 | 47.00746 | 17.88611 | 39014 ft | 476 kts | 20° |
| 2026-05-07 10:13 | 47.06893 | 17.92255 | 39012 ft | 477 kts | 20° |
| 2026-05-07 10:14 | 47.13052 | 17.95915 | 39008 ft | 477 kts | 20° |
| 2026-05-07 10:14 | 47.19205 | 17.99580 | 39006 ft | 478 kts | 20° |
| 2026-05-07 10:15 | 47.25331 | 18.03238 | 38996 ft | 479 kts | 20° |
| 2026-05-07 10:15 | 47.31501 | 18.06934 | 39001 ft | 479 kts | 20° |
| 2026-05-07 10:16 | 47.37682 | 18.10642 | 38997 ft | 479 kts | 20° |
| 2026-05-07 10:16 | 47.43855 | 18.14356 | 39006 ft | 479 kts | 20° |
| 2026-05-07 10:17 | 47.50029 | 18.18082 | 38989 ft | 479 kts | 20° |
| 2026-05-07 10:17 | 47.56201 | 18.21817 | 38990 ft | 479 kts | 20° |
| 2026-05-07 10:18 | 47.62368 | 18.25557 | 38991 ft | 478 kts | 20° |
| 2026-05-07 10:18 | 47.68491 | 18.29280 | 38992 ft | 478 kts | 20° |
| 2026-05-07 10:19 | 47.74645 | 18.33027 | 38994 ft | 478 kts | 20° |
| 2026-05-07 10:19 | 47.80792 | 18.36784 | 38992 ft | 478 kts | 20° |
| 2026-05-07 10:20 | 47.86942 | 18.40555 | 38986 ft | 478 kts | 20° |
| 2026-05-07 10:20 | 47.93084 | 18.44327 | 38987 ft | 477 kts | 20° |
| 2026-05-07 10:21 | 47.99225 | 18.48108 | 38986 ft | 477 kts | 20° |
| 2026-05-07 10:21 | 48.05366 | 18.51899 | 38990 ft | 477 kts | 20° |
| 2026-05-07 10:22 | 48.11501 | 18.55694 | 38993 ft | 477 kts | 20° |
| 2026-05-07 10:22 | 48.17638 | 18.59501 | 38991 ft | 477 kts | 20° |
| 2026-05-07 10:23 | 48.23768 | 18.63317 | 38995 ft | 477 kts | 20° |
| 2026-05-07 10:23 | 48.29892 | 18.67138 | 38993 ft | 477 kts | 20° |
| 2026-05-07 10:24 | 48.36018 | 18.70971 | 38991 ft | 477 kts | 20° |
| 2026-05-07 10:24 | 48.42134 | 18.74807 | 38987 ft | 477 kts | 20° |
| 2026-05-07 10:25 | 48.48224 | 18.78637 | 38981 ft | 476 kts | 21° |
| 2026-05-07 10:25 | 48.54334 | 18.82489 | 38983 ft | 476 kts | 21° |
| 2026-05-07 10:26 | 48.60448 | 18.86353 | 38971 ft | 476 kts | 21° |
| 2026-05-07 10:26 | 48.66554 | 18.90223 | 38973 ft | 475 kts | 21° |
| 2026-05-07 10:27 | 48.72647 | 18.94093 | 38986 ft | 474 kts | 21° |
| 2026-05-07 10:27 | 48.78729 | 18.97968 | 38968 ft | 474 kts | 21° |
| 2026-05-07 10:28 | 48.84804 | 19.01849 | 38970 ft | 473 kts | 21° |
| 2026-05-07 10:28 | 48.90821 | 19.05705 | 38967 ft | 472 kts | 21° |
| 2026-05-07 10:29 | 48.96869 | 19.09588 | 38968 ft | 472 kts | 21° |
| 2026-05-07 10:29 | 49.02913 | 19.13478 | 38971 ft | 471 kts | 21° |
| 2026-05-07 10:30 | 49.11967 | 19.19327 | 38968 ft | 471 kts | 21° |
| 2026-05-07 10:30 | 49.17599 | 19.24465 | 38953 ft | 473 kts | 41° |
| 2026-05-07 10:31 | 49.22409 | 19.31319 | 38964 ft | 473 kts | 44° |
| 2026-05-07 10:31 | 49.27159 | 19.38282 | 38966 ft | 473 kts | 43° |
| 2026-05-07 10:32 | 49.31964 | 19.45209 | 38953 ft | 474 kts | 43° |
| 2026-05-07 10:32 | 49.36780 | 19.52109 | 38953 ft | 475 kts | 43° |
| 2026-05-07 10:33 | 49.41606 | 19.59044 | 38952 ft | 475 kts | 43° |
| 2026-05-07 10:33 | 49.46840 | 19.65151 | 38946 ft | 474 kts | 25° |
| 2026-05-07 10:34 | 49.52843 | 19.69083 | 38959 ft | 472 kts | 18° |
| 2026-05-07 10:34 | 49.59062 | 19.72375 | 38549 ft | 479 kts | 16° |
| 2026-05-07 10:35 | 49.62231 | 19.74031 | 38056 ft | 478 kts | 17° |
| 2026-05-07 10:35 | 49.65382 | 19.75701 | 37489 ft | 478 kts | 17° |
| 2026-05-07 10:35 | 49.68115 | 19.77175 | 37001 ft | 477 kts | 17° |
| 2026-05-07 10:35 | 49.71248 | 19.78891 | 36438 ft | 477 kts | 18° |
| 2026-05-07 10:36 | 49.74376 | 19.80621 | 35863 ft | 477 kts | 18° |
| 2026-05-07 10:36 | 49.77484 | 19.82352 | 35418 ft | 473 kts | 18° |
| 2026-05-07 10:36 | 49.80571 | 19.84076 | 34983 ft | 470 kts | 18° |
| 2026-05-07 10:36 | 49.83638 | 19.85793 | 34561 ft | 467 kts | 18° |
| 2026-05-07 10:37 | 49.86684 | 19.87500 | 34130 ft | 464 kts | 18° |
| 2026-05-07 10:37 | 49.89715 | 19.89199 | 33709 ft | 462 kts | 18° |
| 2026-05-07 10:37 | 49.92689 | 19.90867 | 33291 ft | 459 kts | 18° |
| 2026-05-07 10:37 | 49.95678 | 19.92546 | 32874 ft | 456 kts | 18° |
| 2026-05-07 10:38 | 49.98663 | 19.94223 | 32457 ft | 454 kts | 18° |
| 2026-05-07 10:38 | 50.01622 | 19.95888 | 32043 ft | 452 kts | 18° |
| 2026-05-07 10:38 | 50.04573 | 19.97551 | 31625 ft | 449 kts | 18° |
| 2026-05-07 10:38 | 50.07499 | 19.99202 | 31223 ft | 447 kts | 17° |
| 2026-05-07 10:39 | 50.10420 | 20.00852 | 30819 ft | 445 kts | 17° |
| 2026-05-07 10:39 | 50.13323 | 20.02494 | 30418 ft | 443 kts | 17° |
| 2026-05-07 10:39 | 50.16218 | 20.04133 | 30017 ft | 441 kts | 17° |
| 2026-05-07 10:39 | 50.19093 | 20.05764 | 29612 ft | 439 kts | 17° |
| 2026-05-07 10:40 | 50.21967 | 20.07395 | 29200 ft | 438 kts | 17° |
| 2026-05-07 10:40 | 50.24819 | 20.09015 | 28799 ft | 436 kts | 17° |
| 2026-05-07 10:40 | 50.27658 | 20.10633 | 28389 ft | 433 kts | 17° |
| 2026-05-07 10:40 | 50.30494 | 20.12251 | 27977 ft | 431 kts | 17° |
| 2026-05-07 10:41 | 50.33307 | 20.13857 | 27570 ft | 429 kts | 17° |
| 2026-05-07 10:41 | 50.36105 | 20.15456 | 27167 ft | 427 kts | 17° |
| 2026-05-07 10:41 | 50.38885 | 20.17046 | 26763 ft | 424 kts | 17° |
| 2026-05-07 10:41 | 50.41607 | 20.18606 | 26371 ft | 421 kts | 17° |
| 2026-05-07 10:42 | 50.44356 | 20.20183 | 25973 ft | 419 kts | 18° |
| 2026-05-07 10:42 | 50.47085 | 20.21751 | 25581 ft | 416 kts | 18° |
| 2026-05-07 10:42 | 50.49789 | 20.23305 | 25187 ft | 413 kts | 18° |
| 2026-05-07 10:42 | 50.52478 | 20.24853 | 24802 ft | 411 kts | 18° |
| 2026-05-07 10:43 | 50.55158 | 20.26398 | 24410 ft | 408 kts | 18° |
| 2026-05-07 10:43 | 50.57815 | 20.27933 | 24029 ft | 405 kts | 18° |
| 2026-05-07 10:43 | 50.60452 | 20.29458 | 23642 ft | 402 kts | 18° |
| 2026-05-07 10:43 | 50.63071 | 20.30974 | 23250 ft | 399 kts | 18° |
| 2026-05-07 10:44 | 50.65669 | 20.32478 | 22879 ft | 397 kts | 18° |
| 2026-05-07 10:44 | 50.68253 | 20.33976 | 22497 ft | 394 kts | 18° |
| 2026-05-07 10:44 | 50.70818 | 20.35465 | 22121 ft | 392 kts | 18° |
| 2026-05-07 10:44 | 50.73368 | 20.36947 | 21740 ft | 390 kts | 18° |
| 2026-05-07 10:45 | 50.75903 | 20.38422 | 21363 ft | 387 kts | 18° |
| 2026-05-07 10:45 | 50.78429 | 20.39893 | 20985 ft | 385 kts | 18° |
| 2026-05-07 10:45 | 50.80932 | 20.41352 | 20610 ft | 383 kts | 18° |
| 2026-05-07 10:45 | 50.83427 | 20.42809 | 20237 ft | 381 kts | 18° |
| 2026-05-07 10:46 | 50.85909 | 20.44260 | 19864 ft | 379 kts | 18° |
| 2026-05-07 10:46 | 50.88379 | 20.45706 | 19497 ft | 377 kts | 18° |
| 2026-05-07 10:46 | 50.90797 | 20.47123 | 19131 ft | 374 kts | 18° |
| 2026-05-07 10:46 | 50.93235 | 20.48553 | 18765 ft | 373 kts | 18° |
| 2026-05-07 10:47 | 50.95667 | 20.49980 | 18390 ft | 371 kts | 18° |
| 2026-05-07 10:47 | 50.98081 | 20.51398 | 18025 ft | 369 kts | 18° |
| 2026-05-07 10:47 | 51.00483 | 20.52813 | 17662 ft | 367 kts | 18° |
| 2026-05-07 10:47 | 51.02874 | 20.54222 | 17293 ft | 366 kts | 18° |
| 2026-05-07 10:48 | 51.05254 | 20.55626 | 16931 ft | 364 kts | 18° |
| 2026-05-07 10:48 | 51.07611 | 20.57019 | 16572 ft | 361 kts | 18° |
| 2026-05-07 10:48 | 51.09964 | 20.58409 | 16215 ft | 360 kts | 18° |
| 2026-05-07 10:48 | 51.12307 | 20.59796 | 15847 ft | 358 kts | 18° |
| 2026-05-07 10:49 | 51.14640 | 20.61178 | 15487 ft | 356 kts | 19° |
| 2026-05-07 10:49 | 51.16957 | 20.62553 | 15130 ft | 354 kts | 19° |
| 2026-05-07 10:49 | 51.19263 | 20.63923 | 14772 ft | 352 kts | 19° |
| 2026-05-07 10:49 | 51.21560 | 20.65288 | 14417 ft | 351 kts | 19° |
| 2026-05-07 10:50 | 51.23811 | 20.66629 | 14062 ft | 350 kts | 19° |
| 2026-05-07 10:50 | 51.26085 | 20.67982 | 13711 ft | 347 kts | 19° |
| 2026-05-07 10:50 | 51.28342 | 20.69326 | 13352 ft | 346 kts | 19° |
| 2026-05-07 10:50 | 51.30624 | 20.70636 | 12782 ft | 351 kts | 18° |
| 2026-05-07 10:51 | 51.32922 | 20.71899 | 12392 ft | 350 kts | 17° |
| 2026-05-07 10:51 | 51.35223 | 20.73150 | 12026 ft | 348 kts | 17° |
| 2026-05-07 10:51 | 51.37506 | 20.74392 | 11664 ft | 346 kts | 17° |
| 2026-05-07 10:51 | 51.39774 | 20.75629 | 11314 ft | 344 kts | 17° |
| 2026-05-07 10:52 | 51.42034 | 20.76864 | 10969 ft | 342 kts | 17° |
| 2026-05-07 10:52 | 51.44273 | 20.78094 | 10625 ft | 338 kts | 17° |
| 2026-05-07 10:52 | 51.46491 | 20.79316 | 10279 ft | 336 kts | 17° |
| 2026-05-07 10:52 | 51.48681 | 20.80527 | 10099 ft | 328 kts | 17° |
| 2026-05-07 10:53 | 51.50804 | 20.81703 | 9955 ft | 319 kts | 17° |
| 2026-05-07 10:53 | 51.52873 | 20.82850 | 9880 ft | 308 kts | 17° |
| 2026-05-07 10:53 | 51.54894 | 20.83970 | 9496 ft | 310 kts | 17° |
| 2026-05-07 10:53 | 51.56924 | 20.85095 | 9215 ft | 308 kts | 17° |
| 2026-05-07 10:54 | 51.58945 | 20.86215 | 8911 ft | 307 kts | 17° |
| 2026-05-07 10:54 | 51.60956 | 20.87333 | 8612 ft | 306 kts | 17° |
| 2026-05-07 10:54 | 51.62958 | 20.88448 | 8343 ft | 303 kts | 17° |
| 2026-05-07 10:54 | 51.64943 | 20.89556 | 8088 ft | 300 kts | 17° |
| 2026-05-07 10:55 | 51.66887 | 20.90641 | 7810 ft | 298 kts | 17° |
| 2026-05-07 10:55 | 51.68841 | 20.91732 | 7532 ft | 297 kts | 17° |
| 2026-05-07 10:55 | 51.70783 | 20.92818 | 7252 ft | 295 kts | 17° |
| 2026-05-07 10:55 | 51.72722 | 20.93903 | 6966 ft | 294 kts | 17° |
| 2026-05-07 10:56 | 51.74649 | 20.94980 | 6685 ft | 293 kts | 17° |
| 2026-05-07 10:56 | 51.76573 | 20.96058 | 6394 ft | 291 kts | 17° |
| 2026-05-07 10:56 | 51.78483 | 20.97131 | 6104 ft | 290 kts | 17° |
| 2026-05-07 10:56 | 51.79742 | 20.97838 | 5911 ft | 289 kts | 17° |
| 2026-05-07 10:57 | 51.81637 | 20.98901 | 5623 ft | 288 kts | 17° |
| 2026-05-07 10:57 | 51.83526 | 20.99962 | 5338 ft | 286 kts | 17° |
| 2026-05-07 10:57 | 51.85372 | 21.01004 | 5159 ft | 274 kts | 17° |
| 2026-05-07 10:57 | 51.87134 | 21.01997 | 5027 ft | 263 kts | 17° |
| 2026-05-07 10:58 | 51.88835 | 21.02954 | 4925 ft | 255 kts | 17° |
| 2026-05-07 10:58 | 51.90496 | 21.03890 | 4819 ft | 251 kts | 17° |
| 2026-05-07 10:58 | 51.92137 | 21.04815 | 4723 ft | 249 kts | 17° |
| 2026-05-07 10:58 | 51.93771 | 21.05738 | 4487 ft | 254 kts | 17° |
| 2026-05-07 10:59 | 51.95447 | 21.06684 | 4249 ft | 255 kts | 17° |
| 2026-05-07 10:59 | 51.97124 | 21.07631 | 3993 ft | 255 kts | 17° |
| 2026-05-07 10:59 | 51.98760 | 21.08561 | 3762 ft | 243 kts | 17° |
| 2026-05-07 10:59 | 52.00333 | 21.09380 | 3505 ft | 230 kts | 6° |
| 2026-05-07 11:00 | 52.01818 | 21.09072 | 3348 ft | 207 kts | 337° |
| 2026-05-07 11:00 | 52.03133 | 21.08244 | 3067 ft | 198 kts | 336° |
| 2026-05-07 11:00 | 52.04372 | 21.07374 | 2806 ft | 189 kts | 331° |
| 2026-05-07 11:00 | 52.05518 | 21.06414 | 2562 ft | 181 kts | 329° |
| 2026-05-07 11:01 | 52.06611 | 21.05451 | 2328 ft | 177 kts | 329° |
| 2026-05-07 11:01 | 52.07684 | 21.04511 | 2096 ft | 172 kts | 329° |
| 2026-05-07 11:01 | 52.08706 | 21.03615 | 1884 ft | 162 kts | 329° |
| 2026-05-07 11:01 | 52.09661 | 21.02770 | 1701 ft | 154 kts | 329° |
| 2026-05-07 11:02 | 52.10600 | 21.01949 | 1466 ft | 149 kts | 330° |
| 2026-05-07 11:02 | 52.11499 | 21.01162 | 1235 ft | 146 kts | 330° |
| 2026-05-07 11:02 | 52.12388 | 21.00385 | 1039 ft | 146 kts | 330° |
| 2026-05-07 11:02 | 52.13287 | 20.99598 | 859 ft | 148 kts | 330° |
| 2026-05-07 11:03 | 52.14191 | 20.98796 | 686 ft | 147 kts | 330° |
| 2026-05-07 11:03 | 52.15091 | 20.98012 | 476 ft | 146 kts | 330° |
| 2026-05-07 11:03 | 52.15971 | 20.97243 | 355 ft | 138 kts | 331° |
| 2026-05-07 11:03 | 52.16694 | 20.96609 | 339 ft | 96 kts | 331° |
| 2026-05-07 11:04 | 52.17096 | 20.96276 | 332 ft | 41 kts | 341° |
| 2026-05-07 11:04 | 52.17295 | 20.96243 | 337 ft | 21 kts | 1° |
| 2026-05-07 11:04 | 52.17376 | 20.96260 | 338 ft | 10 kts | 24° |
| 2026-05-07 11:04 | 52.17405 | 20.96352 | 338 ft | 10 kts | 100° |
| 2026-05-07 11:05 | 52.17358 | 20.96425 | 338 ft | 10 kts | 151° |
| 2026-05-07 11:05 | 52.17300 | 20.96476 | 338 ft | 10 kts | 152° |
| 2026-05-07 11:05 | 52.17230 | 20.96537 | 338 ft | 13 kts | 152° |
| 2026-05-07 11:05 | 52.17141 | 20.96615 | 338 ft | 16 kts | 152° |
| 2026-05-07 11:06 | 52.17034 | 20.96708 | 338 ft | 19 kts | 152° |
| 2026-05-07 11:06 | 52.16910 | 20.96816 | 338 ft | 21 kts | 152° |
| 2026-05-07 11:06 | 52.16772 | 20.96936 | 338 ft | 24 kts | 152° |
| 2026-05-07 11:06 | 52.16644 | 20.97048 | 335 ft | 17 kts | 152° |
| 2026-05-07 11:07 | 52.16531 | 20.97147 | 334 ft | 20 kts | 152° |
| 2026-05-07 11:07 | 52.16401 | 20.97261 | 335 ft | 22 kts | 151° |
| 2026-05-07 11:07 | 52.16261 | 20.97383 | 336 ft | 23 kts | 152° |
| 2026-05-07 11:07 | 52.16112 | 20.97512 | 334 ft | 25 kts | 152° |
| 2026-05-07 11:08 | 52.15959 | 20.97646 | 336 ft | 25 kts | 152° |
| 2026-05-07 11:08 | 52.15834 | 20.97760 | 338 ft | 12 kts | 138° |
| 2026-05-07 11:08 | 52.15821 | 20.97863 | 333 ft | 6 kts | 66° |
| 2026-05-07 11:08 | 52.15822 | 20.97926 | 334 ft | 6 kts | 108° |
| 2026-05-07 11:09 | 52.15805 | 20.97987 | 338 ft | 6 kts | 114° |
| 2026-05-07 11:09 | 52.15792 | 20.98033 | 333 ft | 3 kts | 114° |
| 2026-05-07 11:09 | 52.15791 | 20.98037 | 338 ft | 0 kts | 114° |